Weather History for KBXA - January, 2014

Change the Weather History Date:

Monday, January 6, 2014

  Actual Average Record
Temperature  
Mean Temperature 30 °F -  
Max Temperature 37 °F 58 °F 64 °F (2015)
Min Temperature 23 °F 37 °F 23 °F (2014)
Degree Days  
Heating Degree Days 35    
Moisture  
Dew Point 12 °F    
Average Humidity 49    
Maximum Humidity 75    
Minimum Humidity 26    
Precipitation  
Precipitation 0.01 in - - ()
Sea Level Pressure  
Sea Level Pressure 30.48 in    
Wind  
Wind Speed 15 mph (North)    
Max Wind Speed 23 mph    
Max Gust Speed 36 mph    
Visibility 10 miles    
Events Thunderstorm    
Averages and records for this station are not official NWS values.
T = Trace of Precipitation, MM = Missing Value Source: NWS Daily Summary

Daily Weather History Graph

Daily Weather History Graph

Search for Another Location

Airport or City:

Trip Planner

Search our weather history database for the weather conditions in past years. The results will help you decide how hot, cold, wet, or windy it might be!

Date:

Astronomy

Jan. 06, 2014 Rise Set
Actual Time 6:58 AM CST 5:12 PM CST
Civil Twilight 6:31 AM CST 5:39 PM CST
Nautical Twilight 6:01 AM CST 6:09 PM CST
Astronomical Twilight 5:32 AM CST 6:38 PM CST
Moon 10:39 AM CST (1/6) 11:18 PM CST (1/6)
Length of Visible Light 11h 07m
Length of Day
10h 14m
Waxing Crescent, 35% of the Moon is Illuminated
Jan 6
Waxing Crescent
Jan 7
First Quarter
Jan 15
Full
Jan 23
Last Quarter
Jan 30
New

Hourly Weather History & Observations

Time (CST) Temp. Windchill Dew Point Humidity Pressure Visibility Wind Dir Wind Speed Gust Speed Precip Events Conditions
12:15 AM 37.6 °F 27.4 °F 30.2 °F 75% 30.18 in 10.0 mi North 19.6 mph 28.8 mph N/A   Unknown
12:35 AM 36.0 °F 26.0 °F 28.6 °F 75% 30.20 in 10.0 mi NNW 17.3 mph 26.5 mph N/A   Unknown
12:55 AM 35.6 °F 24.2 °F 28.0 °F 74% 30.21 in 10.0 mi NNW 21.9 mph 28.8 mph N/A   Unknown
1:15 AM 34.7 °F 24.7 °F 27.1 °F 74% 30.22 in 10.0 mi NNW 16.1 mph 27.6 mph N/A   Unknown
1:35 AM 34.3 °F 23.9 °F 26.6 °F 73% 30.24 in 10.0 mi NNW 17.3 mph 26.5 mph N/A   Unknown
1:55 AM 34.2 °F 23.3 °F 25.9 °F 72% 30.25 in 10.0 mi North 18.4 mph 24.2 mph N/A   Unknown
2:15 AM 33.8 °F 23.5 °F 25.0 °F 70% 30.26 in 10.0 mi North 16.1 mph 25.3 mph N/A   Unknown
2:35 AM 33.8 °F 22.8 °F 25.0 °F 70% 30.27 in 10.0 mi NNW 18.4 mph 27.6 mph N/A   Unknown
2:55 AM 33.4 °F 22.7 °F 24.1 °F 69% 30.29 in 10.0 mi NNW 17.3 mph 24.2 mph N/A   Unknown
3:15 AM 33.1 °F 21.9 °F 24.3 °F 70% 30.30 in 10.0 mi NNW 18.4 mph 29.9 mph N/A   Unknown
3:35 AM 32.0 °F 21.6 °F 22.6 °F 68% 30.32 in 10.0 mi NNW 15.0 mph 27.6 mph N/A   Unknown
3:55 AM 32.0 °F 19.2 °F 22.1 °F 67% 30.33 in 10.0 mi North 23.0 mph 29.9 mph N/A   Unknown
4:15 AM 31.8 °F 19.6 °F 21.4 °F 65% 30.34 in 10.0 mi North 20.7 mph 35.7 mph N/A   Unknown
4:35 AM 31.5 °F 21.4 °F 21.2 °F 66% 30.34 in 10.0 mi North 13.8 mph 26.5 mph N/A   Unknown
4:55 AM 31.1 °F 21.9 °F 21.4 °F 67% 30.35 in 10.0 mi North 11.5 mph 18.4 mph N/A   Unknown
5:15 AM 30.2 °F 17.4 °F 19.9 °F 66% 30.36 in 10.0 mi North 20.7 mph 27.6 mph N/A   Unknown
5:35 AM 29.7 °F 17.4 °F 19.0 °F 65% 30.36 in 10.0 mi North 18.4 mph 24.2 mph N/A   Unknown
5:55 AM 29.3 °F 17.0 °F 18.9 °F 65% 30.38 in 10.0 mi North 18.4 mph 24.2 mph N/A Thunderstorm Unknown
6:15 AM 28.9 °F 16.5 °F 18.1 °F 64% 30.38 in 10.0 mi North 18.4 mph 27.6 mph N/A   Unknown
6:40 AM 28.4 °F 16.2 °F 18.1 °F 65% 30.40 in 10.0 mi North 17.3 mph 23.0 mph N/A   Unknown
6:55 AM 28.4 °F 18.5 °F 18.3 °F 66% 30.41 in 10.0 mi North 11.5 mph 23.0 mph N/A   Unknown
7:15 AM 27.9 °F 19.1 °F 18.1 °F 67% 30.43 in 10.0 mi North 9.2 mph - N/A   Unknown
7:35 AM 27.9 °F 19.1 °F 18.5 °F 68% 30.46 in 10.0 mi North 9.2 mph - N/A   Unknown
7:55 AM 27.9 °F 15.9 °F 17.1 °F 64% 30.48 in 10.0 mi North 16.1 mph 23.0 mph N/A   Unknown
8:15 AM 27.9 °F 17.3 °F 16.2 °F 62% 30.50 in 10.0 mi North 12.7 mph 23.0 mph N/A   Unknown
8:35 AM 28.0 °F 15.3 °F 12.6 °F 52% 30.50 in 10.0 mi North 18.4 mph 26.5 mph N/A   Unknown
8:55 AM 28.4 °F 15.1 °F 11.7 °F 50% 30.52 in 10.0 mi North 20.7 mph 25.3 mph N/A   Unknown
9:15 AM 29.3 °F 18.2 °F 12.4 °F 49% 30.53 in 10.0 mi North 15.0 mph 21.9 mph N/A   Unknown
9:35 AM 29.7 °F 18.2 °F 9.3 °F 43% 30.54 in 10.0 mi North 16.1 mph 25.3 mph N/A   Unknown
9:55 AM 30.2 °F 18.1 °F 9.0 °F 41% 30.55 in 10.0 mi North 18.4 mph 21.9 mph N/A   Unknown
10:15 AM 32.0 °F 20.8 °F 11.3 °F 42% 30.56 in 10.0 mi North 17.3 mph 21.9 mph N/A   Unknown
10:35 AM 31.3 °F 18.9 °F 6.6 °F 35% 30.55 in 10.0 mi North 20.7 mph 27.6 mph N/A   Unknown
10:55 AM 32.0 °F 20.1 °F 7.2 °F 35% 30.55 in 10.0 mi North 19.6 mph - N/A   Unknown
11:15 AM 31.8 °F 21.0 °F 6.1 °F 34% 30.54 in 10.0 mi North 16.1 mph - N/A   Unknown
11:35 AM 32.0 °F 22.1 °F 5.9 °F 33% 30.52 in 10.0 mi NNE 13.8 mph 20.7 mph N/A   Unknown
11:55 AM 32.9 °F 22.4 °F 5.9 °F 32% 30.52 in 10.0 mi NNW 16.1 mph 23.0 mph N/A   Unknown
12:15 PM 33.6 °F 23.7 °F 6.3 °F 32% 30.51 in 10.0 mi North 15.0 mph 19.6 mph N/A   Unknown
12:35 PM 34.3 °F 25.0 °F 7.9 °F 33% 30.50 in 10.0 mi North 13.8 mph 20.7 mph N/A   Unknown
12:55 PM 34.2 °F 23.6 °F 7.3 °F 33% 30.50 in 10.0 mi North 17.3 mph 23.0 mph N/A   Unknown
1:15 PM 34.9 °F 24.9 °F 7.5 °F 32% 30.50 in 10.0 mi NNW 16.1 mph 21.9 mph N/A   Unknown
1:35 PM 35.1 °F 25.2 °F 7.7 °F 32% 30.49 in 10.0 mi North 16.1 mph 23.0 mph N/A   Unknown
1:55 PM 35.4 °F 25.6 °F 6.3 °F 30% 30.50 in 10.0 mi NNW 16.1 mph 24.2 mph N/A   Unknown
2:15 PM 35.6 °F 26.2 °F 6.8 °F 30% 30.49 in 10.0 mi NNW 15.0 mph - N/A   Unknown
2:35 PM 34.2 °F 23.3 °F 2.5 °F 26% 30.50 in 10.0 mi NNW 18.4 mph 26.5 mph N/A   Unknown
2:55 PM 33.8 °F 23.5 °F 3.2 °F 28% 30.50 in 10.0 mi NNW 16.1 mph 21.9 mph N/A   Unknown
3:15 PM 33.3 °F 21.8 °F 2.3 °F 27% 30.51 in 10.0 mi North 19.6 mph - N/A   Unknown
3:35 PM 33.4 °F 24.3 °F 3.0 °F 28% 30.52 in 10.0 mi North 12.7 mph 21.9 mph N/A   Unknown
3:55 PM 32.9 °F 22.8 °F 3.2 °F 29% 30.53 in 10.0 mi NNW 15.0 mph - N/A   Unknown
4:15 PM 32.2 °F 23.2 °F 2.8 °F 29% 30.54 in 10.0 mi NNW 11.5 mph 19.6 mph N/A   Unknown
4:35 PM 32.0 °F 22.5 °F 2.8 °F 29% 30.53 in 10.0 mi North 12.7 mph 18.4 mph N/A   Unknown
4:55 PM 31.3 °F 21.6 °F 0.3 °F 27% 30.53 in 10.0 mi North 12.7 mph 20.7 mph N/A   Unknown
5:15 PM 30.6 °F 20.7 °F -0.6 °F 26% 30.54 in 10.0 mi NNW 12.7 mph 25.3 mph N/A   Unknown
5:35 PM 30.0 °F 20.0 °F 0.9 °F 29% 30.54 in 10.0 mi North 12.7 mph 18.4 mph N/A   Unknown
5:55 PM 29.3 °F 20.8 °F 2.1 °F 31% 30.56 in 10.0 mi NNW 9.2 mph - N/A   Unknown
6:15 PM 29.3 °F 20.2 °F 2.3 °F 32% 30.56 in 10.0 mi North 10.4 mph - N/A   Unknown
6:35 PM 28.8 °F 19.0 °F 4.1 °F 35% 30.57 in 10.0 mi North 11.5 mph - N/A   Unknown
6:55 PM 28.6 °F 19.9 °F 3.4 °F 34% 30.59 in 10.0 mi North 9.2 mph - N/A   Unknown
7:15 PM 28.2 °F 21.0 °F 4.6 °F 37% 30.60 in 10.0 mi North 6.9 mph - N/A   Unknown
7:35 PM 27.9 °F 19.8 °F 5.4 °F 38% 30.61 in 10.0 mi North 8.1 mph - N/A   Unknown
7:55 PM 27.7 °F 20.4 °F 5.2 °F 38% 30.62 in 10.0 mi North 6.9 mph - N/A   Unknown
8:15 PM 27.5 °F 20.2 °F 5.9 °F 40% 30.62 in 10.0 mi NNW 6.9 mph - N/A   Unknown
8:35 PM 27.0 °F 21.6 °F 7.3 °F 44% 30.62 in 10.0 mi North 4.6 mph - N/A   Unknown
8:55 PM 26.6 °F 19.1 °F 7.3 °F 44% 30.62 in 10.0 mi North 6.9 mph - N/A   Unknown
9:15 PM 25.9 °F 19.2 °F 7.5 °F 46% 30.63 in 10.0 mi North 5.8 mph - N/A   Unknown
9:35 PM 25.3 °F 21.1 °F 8.6 °F 49% 30.63 in 10.0 mi North 3.5 mph - N/A   Unknown
9:55 PM 24.6 °F - 9.9 °F 54% 30.64 in 10.0 mi Calm Calm - N/A   Unknown
10:15 PM 24.6 °F 20.3 °F 10.6 °F 55% 30.64 in 10.0 mi NNW 3.5 mph - N/A   Unknown
10:35 PM 24.8 °F - 10.9 °F 56% 30.63 in 10.0 mi Calm Calm - N/A   Unknown
10:55 PM 24.3 °F - 12.7 °F 62% 30.63 in 10.0 mi Calm Calm - N/A   Unknown
11:15 PM 23.9 °F - 13.1 °F 63% 30.63 in 10.0 mi Calm Calm - N/A   Unknown
11:35 PM 23.7 °F - 13.1 °F 64% 30.63 in 10.0 mi Calm Calm - N/A   Unknown
11:55 PM 23.2 °F - 15.4 °F 72% 30.62 in 10.0 mi Calm Calm - N/A   Unknown